sensor_id;sensor_type;location;lat;lon;timestamp;temperature;humidity
27567;DHT22;15006;48.584;9.186;2022-07-06T00:00:41;13.70;63.50
27567;DHT22;15006;48.584;9.186;2022-07-06T00:03:07;13.60;63.90
27567;DHT22;15006;48.584;9.186;2022-07-06T00:05:33;13.50;64.10
27567;DHT22;15006;48.584;9.186;2022-07-06T00:08:00;13.40;64.40
27567;DHT22;15006;48.584;9.186;2022-07-06T00:10:26;13.30;64.50
27567;DHT22;15006;48.584;9.186;2022-07-06T00:12:52;13.20;64.70
27567;DHT22;15006;48.584;9.186;2022-07-06T00:15:18;13.00;65.10
27567;DHT22;15006;48.584;9.186;2022-07-06T00:17:44;12.80;65.50
27567;DHT22;15006;48.584;9.186;2022-07-06T00:20:10;12.70;65.80
27567;DHT22;15006;48.584;9.186;2022-07-06T00:22:36;12.60;66.20
27567;DHT22;15006;48.584;9.186;2022-07-06T00:25:02;12.50;66.70
27567;DHT22;15006;48.584;9.186;2022-07-06T00:27:29;12.30;67.10
27567;DHT22;15006;48.584;9.186;2022-07-06T00:29:54;12.20;67.40
27567;DHT22;15006;48.584;9.186;2022-07-06T00:32:20;12.10;67.90
27567;DHT22;15006;48.584;9.186;2022-07-06T00:34:46;12.10;68.60
27567;DHT22;15006;48.584;9.186;2022-07-06T00:37:12;12.00;69.00
27567;DHT22;15006;48.584;9.186;2022-07-06T00:39:41;12.00;69.30
27567;DHT22;15006;48.584;9.186;2022-07-06T00:42:07;11.90;69.50
27567;DHT22;15006;48.584;9.186;2022-07-06T00:44:33;11.80;69.80
27567;DHT22;15006;48.584;9.186;2022-07-06T00:46:59;11.80;69.90
27567;DHT22;15006;48.584;9.186;2022-07-06T00:49:25;11.70;70.20
27567;DHT22;15006;48.584;9.186;2022-07-06T00:52:10;11.60;71.30
27567;DHT22;15006;48.584;9.186;2022-07-06T00:54:37;11.60;70.70
27567;DHT22;15006;48.584;9.186;2022-07-06T00:57:06;11.50;70.90
27567;DHT22;15006;48.584;9.186;2022-07-06T00:59:32;11.50;71.40
27567;DHT22;15006;48.584;9.186;2022-07-06T01:01:59;11.40;71.60
27567;DHT22;15006;48.584;9.186;2022-07-06T01:04:27;11.40;72.00
27567;DHT22;15006;48.584;9.186;2022-07-06T01:06:56;11.30;72.20
27567;DHT22;15006;48.584;9.186;2022-07-06T01:09:22;11.30;72.40
27567;DHT22;15006;48.584;9.186;2022-07-06T01:11:48;11.30;72.30
27567;DHT22;15006;48.584;9.186;2022-07-06T01:14:14;11.30;72.60
27567;DHT22;15006;48.584;9.186;2022-07-06T01:16:41;11.30;72.80
27567;DHT22;15006;48.584;9.186;2022-07-06T01:19:07;11.20;72.70
27567;DHT22;15006;48.584;9.186;2022-07-06T01:21:33;11.20;72.90
27567;DHT22;15006;48.584;9.186;2022-07-06T01:27:39;11.10;74.70
27567;DHT22;15006;48.584;9.186;2022-07-06T01:30:14;11.10;73.30
27567;DHT22;15006;48.584;9.186;2022-07-06T01:32:42;11.00;74.50
27567;DHT22;15006;48.584;9.186;2022-07-06T01:35:10;11.00;73.80
27567;DHT22;15006;48.584;9.186;2022-07-06T01:37:38;11.00;74.30
27567;DHT22;15006;48.584;9.186;2022-07-06T01:40:06;11.00;74.50
27567;DHT22;15006;48.584;9.186;2022-07-06T01:42:34;10.90;74.80
27567;DHT22;15006;48.584;9.186;2022-07-06T01:45:01;10.90;75.00
27567;DHT22;15006;48.584;9.186;2022-07-06T01:47:28;10.80;75.40
27567;DHT22;15006;48.584;9.186;2022-07-06T01:50:00;10.80;75.70
27567;DHT22;15006;48.584;9.186;2022-07-06T01:52:31;10.80;76.60
27567;DHT22;15006;48.584;9.186;2022-07-06T01:54:57;10.70;76.20
27567;DHT22;15006;48.584;9.186;2022-07-06T01:57:23;10.70;76.20
27567;DHT22;15006;48.584;9.186;2022-07-06T01:59:50;10.70;76.40
27567;DHT22;15006;48.584;9.186;2022-07-06T02:02:17;10.70;76.60
27567;DHT22;15006;48.584;9.186;2022-07-06T02:04:44;10.60;76.90
27567;DHT22;15006;48.584;9.186;2022-07-06T02:07:11;10.60;77.10
27567;DHT22;15006;48.584;9.186;2022-07-06T02:09:38;10.60;77.20
27567;DHT22;15006;48.584;9.186;2022-07-06T02:12:04;10.60;77.40
27567;DHT22;15006;48.584;9.186;2022-07-06T02:14:30;10.50;77.40
27567;DHT22;15006;48.584;9.186;2022-07-06T02:16:56;10.60;77.50
27567;DHT22;15006;48.584;9.186;2022-07-06T02:19:23;10.50;77.40
27567;DHT22;15006;48.584;9.186;2022-07-06T02:21:49;10.50;77.60
27567;DHT22;15006;48.584;9.186;2022-07-06T02:24:16;10.50;78.00
27567;DHT22;15006;48.584;9.186;2022-07-06T02:26:42;10.40;78.60
27567;DHT22;15006;48.584;9.186;2022-07-06T02:29:07;10.40;79.00
27567;DHT22;15006;48.584;9.186;2022-07-06T02:31:34;10.40;80.40
27567;DHT22;15006;48.584;9.186;2022-07-06T02:34:02;10.40;80.00
27567;DHT22;15006;48.584;9.186;2022-07-06T02:36:28;10.40;80.00
27567;DHT22;15006;48.584;9.186;2022-07-06T02:38:54;10.40;80.00
27567;DHT22;15006;48.584;9.186;2022-07-06T02:41:21;10.40;79.90
27567;DHT22;15006;48.584;9.186;2022-07-06T02:43:47;10.40;79.80
27567;DHT22;15006;48.584;9.186;2022-07-06T02:46:13;10.30;79.90
27567;DHT22;15006;48.584;9.186;2022-07-06T02:48:39;10.30;80.30
27567;DHT22;15006;48.584;9.186;2022-07-06T02:51:05;10.30;80.10
27567;DHT22;15006;48.584;9.186;2022-07-06T02:53:31;10.30;80.10
27567;DHT22;15006;48.584;9.186;2022-07-06T02:55:57;10.20;80.00
27567;DHT22;15006;48.584;9.186;2022-07-06T02:58:24;10.20;80.00
27567;DHT22;15006;48.584;9.186;2022-07-06T03:00:50;10.10;79.90
27567;DHT22;15006;48.584;9.186;2022-07-06T03:03:17;10.10;79.80
27567;DHT22;15006;48.584;9.186;2022-07-06T03:05:43;10.00;79.90
27567;DHT22;15006;48.584;9.186;2022-07-06T03:08:12;10.00;80.30
27567;DHT22;15006;48.584;9.186;2022-07-06T03:10:38;9.90;80.70
27567;DHT22;15006;48.584;9.186;2022-07-06T03:13:04;9.90;80.90
27567;DHT22;15006;48.584;9.186;2022-07-06T03:15:30;9.80;81.10
27567;DHT22;15006;48.584;9.186;2022-07-06T03:17:56;9.80;81.70
27567;DHT22;15006;48.584;9.186;2022-07-06T03:20:22;9.80;82.50
27567;DHT22;15006;48.584;9.186;2022-07-06T03:22:48;9.80;82.60
27567;DHT22;15006;48.584;9.186;2022-07-06T03:25:14;9.70;82.80
27567;DHT22;15006;48.584;9.186;2022-07-06T03:27:40;9.70;83.10
27567;DHT22;15006;48.584;9.186;2022-07-06T03:30:06;9.70;83.60
27567;DHT22;15006;48.584;9.186;2022-07-06T03:32:34;9.70;84.10
27567;DHT22;15006;48.584;9.186;2022-07-06T03:35:00;9.70;84.40
27567;DHT22;15006;48.584;9.186;2022-07-06T03:37:28;9.70;84.70
27567;DHT22;15006;48.584;9.186;2022-07-06T03:39:54;9.70;85.50
27567;DHT22;15006;48.584;9.186;2022-07-06T03:42:20;9.70;85.50
27567;DHT22;15006;48.584;9.186;2022-07-06T03:44:46;9.70;85.60
27567;DHT22;15006;48.584;9.186;2022-07-06T03:47:12;9.70;85.90
27567;DHT22;15006;48.584;9.186;2022-07-06T03:49:38;9.70;86.00
27567;DHT22;15006;48.584;9.186;2022-07-06T03:52:04;9.70;87.30
27567;DHT22;15006;48.584;9.186;2022-07-06T03:54:30;9.70;86.80
27567;DHT22;15006;48.584;9.186;2022-07-06T03:56:58;9.80;87.20
27567;DHT22;15006;48.584;9.186;2022-07-06T03:59:24;9.80;87.80
27567;DHT22;15006;48.584;9.186;2022-07-06T04:01:50;9.80;87.80
27567;DHT22;15006;48.584;9.186;2022-07-06T04:04:18;9.90;88.20
27567;DHT22;15006;48.584;9.186;2022-07-06T04:06:44;9.90;88.50
27567;DHT22;15006;48.584;9.186;2022-07-06T04:09:11;9.90;89.20
27567;DHT22;15006;48.584;9.186;2022-07-06T04:11:37;9.90;90.00
27567;DHT22;15006;48.584;9.186;2022-07-06T04:14:03;10.00;90.40
27567;DHT22;15006;48.584;9.186;2022-07-06T04:16:29;10.00;90.40
27567;DHT22;15006;48.584;9.186;2022-07-06T04:18:54;10.10;90.70
27567;DHT22;15006;48.584;9.186;2022-07-06T04:21:20;10.10;90.70
27567;DHT22;15006;48.584;9.186;2022-07-06T04:23:47;10.10;90.90
27567;DHT22;15006;48.584;9.186;2022-07-06T04:26:13;10.20;90.90
27567;DHT22;15006;48.584;9.186;2022-07-06T04:28:39;10.30;91.00
27567;DHT22;15006;48.584;9.186;2022-07-06T04:31:06;10.40;90.80
27567;DHT22;15006;48.584;9.186;2022-07-06T04:33:32;10.50;91.00
27567;DHT22;15006;48.584;9.186;2022-07-06T04:36:00;10.60;91.00
27567;DHT22;15006;48.584;9.186;2022-07-06T04:38:27;10.60;90.90
27567;DHT22;15006;48.584;9.186;2022-07-06T04:40:53;10.70;91.10
27567;DHT22;15006;48.584;9.186;2022-07-06T04:43:19;10.70;91.10
27567;DHT22;15006;48.584;9.186;2022-07-06T04:45:45;10.80;91.30
27567;DHT22;15006;48.584;9.186;2022-07-06T04:48:11;10.90;91.10
27567;DHT22;15006;48.584;9.186;2022-07-06T04:50:37;11.00;91.20
27567;DHT22;15006;48.584;9.186;2022-07-06T04:53:03;11.00;91.10
27567;DHT22;15006;48.584;9.186;2022-07-06T04:55:30;11.10;91.10
27567;DHT22;15006;48.584;9.186;2022-07-06T04:57:56;11.20;91.10
27567;DHT22;15006;48.584;9.186;2022-07-06T05:00:22;11.20;91.10
27567;DHT22;15006;48.584;9.186;2022-07-06T05:02:49;11.30;90.90
27567;DHT22;15006;48.584;9.186;2022-07-06T05:05:16;11.40;90.70
27567;DHT22;15006;48.584;9.186;2022-07-06T05:07:42;11.50;90.60
27567;DHT22;15006;48.584;9.186;2022-07-06T05:10:10;11.60;90.60
27567;DHT22;15006;48.584;9.186;2022-07-06T05:12:38;11.70;90.60
27567;DHT22;15006;48.584;9.186;2022-07-06T05:15:05;11.80;90.50
27567;DHT22;15006;48.584;9.186;2022-07-06T05:17:32;11.90;90.50
27567;DHT22;15006;48.584;9.186;2022-07-06T05:19:58;12.00;90.60
27567;DHT22;15006;48.584;9.186;2022-07-06T05:22:25;12.10;90.40
27567;DHT22;15006;48.584;9.186;2022-07-06T05:24:52;12.20;90.50
27567;DHT22;15006;48.584;9.186;2022-07-06T05:27:18;12.30;90.00
27567;DHT22;15006;48.584;9.186;2022-07-06T05:29:46;12.30;88.80
27567;DHT22;15006;48.584;9.186;2022-07-06T05:32:12;12.50;88.40
27567;DHT22;15006;48.584;9.186;2022-07-06T05:34:39;12.60;87.60
27567;DHT22;15006;48.584;9.186;2022-07-06T05:37:05;12.70;87.10
27567;DHT22;15006;48.584;9.186;2022-07-06T05:39:31;12.80;86.70
27567;DHT22;15006;48.584;9.186;2022-07-06T05:41:57;12.90;86.00
27567;DHT22;15006;48.584;9.186;2022-07-06T05:44:23;13.10;85.70
27567;DHT22;15006;48.584;9.186;2022-07-06T05:46:49;13.20;84.80
27567;DHT22;15006;48.584;9.186;2022-07-06T05:49:15;13.30;84.50
27567;DHT22;15006;48.584;9.186;2022-07-06T05:52:00;13.40;84.30
27567;DHT22;15006;48.584;9.186;2022-07-06T05:54:28;13.60;83.30
27567;DHT22;15006;48.584;9.186;2022-07-06T05:56:54;13.70;82.20
27567;DHT22;15006;48.584;9.186;2022-07-06T05:59:20;13.80;81.10
27567;DHT22;15006;48.584;9.186;2022-07-06T06:01:46;14.00;80.70
27567;DHT22;15006;48.584;9.186;2022-07-06T06:04:12;14.10;79.30
27567;DHT22;15006;48.584;9.186;2022-07-06T06:06:38;14.30;78.80
27567;DHT22;15006;48.584;9.186;2022-07-06T06:09:05;14.40;77.60
27567;DHT22;15006;48.584;9.186;2022-07-06T06:11:31;14.50;77.10
27567;DHT22;15006;48.584;9.186;2022-07-06T06:13:57;14.70;76.20
27567;DHT22;15006;48.584;9.186;2022-07-06T06:16:23;14.80;75.80
27567;DHT22;15006;48.584;9.186;2022-07-06T06:18:50;14.90;75.20
27567;DHT22;15006;48.584;9.186;2022-07-06T06:21:16;15.10;74.20
27567;DHT22;15006;48.584;9.186;2022-07-06T06:23:41;15.20;74.00
27567;DHT22;15006;48.584;9.186;2022-07-06T06:26:08;15.30;73.60
27567;DHT22;15006;48.584;9.186;2022-07-06T06:28:34;15.50;72.60
27567;DHT22;15006;48.584;9.186;2022-07-06T06:31:02;15.60;72.10
27567;DHT22;15006;48.584;9.186;2022-07-06T06:33:28;15.80;71.80
27567;DHT22;15006;48.584;9.186;2022-07-06T06:35:54;16.00;70.40
27567;DHT22;15006;48.584;9.186;2022-07-06T06:38:22;16.10;70.20
27567;DHT22;15006;48.584;9.186;2022-07-06T06:40:51;16.30;69.50
27567;DHT22;15006;48.584;9.186;2022-07-06T06:43:18;16.40;69.10
27567;DHT22;15006;48.584;9.186;2022-07-06T06:45:44;16.60;68.40
27567;DHT22;15006;48.584;9.186;2022-07-06T06:48:11;16.70;67.60
27567;DHT22;15006;48.584;9.186;2022-07-06T06:50:38;16.90;67.70
27567;DHT22;15006;48.584;9.186;2022-07-06T06:53:03;16.90;66.00
27567;DHT22;15006;48.584;9.186;2022-07-06T06:55:30;17.10;65.50
27567;DHT22;15006;48.584;9.186;2022-07-06T06:57:56;17.20;64.80
27567;DHT22;15006;48.584;9.186;2022-07-06T07:00:22;17.30;64.40
27567;DHT22;15006;48.584;9.186;2022-07-06T07:02:48;17.40;64.50
27567;DHT22;15006;48.584;9.186;2022-07-06T07:05:14;17.60;64.50
27567;DHT22;15006;48.584;9.186;2022-07-06T07:07:40;17.70;64.00
27567;DHT22;15006;48.584;9.186;2022-07-06T07:10:06;17.90;62.70
27567;DHT22;15006;48.584;9.186;2022-07-06T07:12:33;18.00;62.20
27567;DHT22;15006;48.584;9.186;2022-07-06T07:15:01;18.10;61.90
27567;DHT22;15006;48.584;9.186;2022-07-06T07:17:28;18.20;61.20
27567;DHT22;15006;48.584;9.186;2022-07-06T07:19:55;18.30;60.30
27567;DHT22;15006;48.584;9.186;2022-07-06T07:22:23;18.40;60.60
27567;DHT22;15006;48.584;9.186;2022-07-06T07:24:50;18.50;60.60
27567;DHT22;15006;48.584;9.186;2022-07-06T07:27:16;18.70;59.30
27567;DHT22;15006;48.584;9.186;2022-07-06T07:29:42;18.90;59.60
27567;DHT22;15006;48.584;9.186;2022-07-06T07:32:08;19.00;59.70
27567;DHT22;15006;48.584;9.186;2022-07-06T07:34:34;19.20;59.20
27567;DHT22;15006;48.584;9.186;2022-07-06T07:37:00;19.40;58.70
27567;DHT22;15006;48.584;9.186;2022-07-06T07:39:27;19.60;58.10
27567;DHT22;15006;48.584;9.186;2022-07-06T07:41:53;19.80;57.70
27567;DHT22;15006;48.584;9.186;2022-07-06T07:44:19;19.90;57.10
27567;DHT22;15006;48.584;9.186;2022-07-06T07:46:45;20.10;57.30
27567;DHT22;15006;48.584;9.186;2022-07-06T07:49:12;20.30;55.90
27567;DHT22;15006;48.584;9.186;2022-07-06T07:51:38;20.50;54.90
27567;DHT22;15006;48.584;9.186;2022-07-06T07:54:05;20.50;54.90
27567;DHT22;15006;48.584;9.186;2022-07-06T07:56:32;20.60;54.30
27567;DHT22;15006;48.584;9.186;2022-07-06T07:58:58;20.70;54.40
27567;DHT22;15006;48.584;9.186;2022-07-06T08:01:25;20.80;54.10
27567;DHT22;15006;48.584;9.186;2022-07-06T08:03:51;20.90;54.00
27567;DHT22;15006;48.584;9.186;2022-07-06T08:06:17;21.10;53.40
27567;DHT22;15006;48.584;9.186;2022-07-06T08:08:45;21.30;53.40
27567;DHT22;15006;48.584;9.186;2022-07-06T08:11:12;21.60;53.80
27567;DHT22;15006;48.584;9.186;2022-07-06T08:13:38;21.80;52.20
27567;DHT22;15006;48.584;9.186;2022-07-06T08:16:05;22.10;51.50
27567;DHT22;15006;48.584;9.186;2022-07-06T08:18:31;22.30;50.50
27567;DHT22;15006;48.584;9.186;2022-07-06T08:20:58;22.50;49.60
27567;DHT22;15006;48.584;9.186;2022-07-06T08:23:24;22.70;48.60
27567;DHT22;15006;48.584;9.186;2022-07-06T08:25:50;22.80;48.50
27567;DHT22;15006;48.584;9.186;2022-07-06T08:28:15;23.00;48.10
27567;DHT22;15006;48.584;9.186;2022-07-06T08:30:42;23.20;48.40
27567;DHT22;15006;48.584;9.186;2022-07-06T08:33:10;23.40;47.60
27567;DHT22;15006;48.584;9.186;2022-07-06T08:35:36;23.60;47.30
27567;DHT22;15006;48.584;9.186;2022-07-06T08:38:02;23.80;46.90
27567;DHT22;15006;48.584;9.186;2022-07-06T08:40:34;24.00;46.70
27567;DHT22;15006;48.584;9.186;2022-07-06T08:43:02;24.20;45.80
27567;DHT22;15006;48.584;9.186;2022-07-06T08:45:29;24.40;46.60
27567;DHT22;15006;48.584;9.186;2022-07-06T08:47:57;24.70;46.60
27567;DHT22;15006;48.584;9.186;2022-07-06T08:50:25;24.90;45.20
27567;DHT22;15006;48.584;9.186;2022-07-06T08:52:51;25.10;45.20
27567;DHT22;15006;48.584;9.186;2022-07-06T08:55:19;25.40;43.90
27567;DHT22;15006;48.584;9.186;2022-07-06T08:57:47;25.60;44.20
27567;DHT22;15006;48.584;9.186;2022-07-06T09:00:15;25.80;42.90
27567;DHT22;15006;48.584;9.186;2022-07-06T09:02:42;26.00;43.30
27567;DHT22;15006;48.584;9.186;2022-07-06T09:05:14;26.10;42.70
27567;DHT22;15006;48.584;9.186;2022-07-06T09:07:40;26.30;41.40
27567;DHT22;15006;48.584;9.186;2022-07-06T09:10:08;26.30;40.20
27567;DHT22;15006;48.584;9.186;2022-07-06T09:12:36;26.20;40.50
27567;DHT22;15006;48.584;9.186;2022-07-06T09:15:03;26.10;40.30
27567;DHT22;15006;48.584;9.186;2022-07-06T09:17:30;26.00;42.20
27567;DHT22;15006;48.584;9.186;2022-07-06T09:19:57;25.90;41.20
27567;DHT22;15006;48.584;9.186;2022-07-06T09:22:27;26.00;41.10
27567;DHT22;15006;48.584;9.186;2022-07-06T09:25:09;26.10;41.50
27567;DHT22;15006;48.584;9.186;2022-07-06T09:27:45;26.20;40.70
27567;DHT22;15006;48.584;9.186;2022-07-06T09:30:16;26.30;40.00
27567;DHT22;15006;48.584;9.186;2022-07-06T09:32:48;26.30;40.10
27567;DHT22;15006;48.584;9.186;2022-07-06T09:35:29;26.20;39.00
27567;DHT22;15006;48.584;9.186;2022-07-06T09:38:09;26.10;38.50
27567;DHT22;15006;48.584;9.186;2022-07-06T09:40:44;26.00;39.80
27567;DHT22;15006;48.584;9.186;2022-07-06T09:45:55;26.20;41.70
27567;DHT22;15006;48.584;9.186;2022-07-06T09:48:26;26.30;40.70
27567;DHT22;15006;48.584;9.186;2022-07-06T09:51:01;26.30;40.10
27567;DHT22;15006;48.584;9.186;2022-07-06T09:53:29;26.30;39.60
27567;DHT22;15006;48.584;9.186;2022-07-06T09:55:57;26.30;38.90
27567;DHT22;15006;48.584;9.186;2022-07-06T09:58:24;26.10;37.90
27567;DHT22;15006;48.584;9.186;2022-07-06T10:00:50;25.80;38.10
27567;DHT22;15006;48.584;9.186;2022-07-06T10:03:17;25.60;38.80
27567;DHT22;15006;48.584;9.186;2022-07-06T10:05:46;25.40;39.30
27567;DHT22;15006;48.584;9.186;2022-07-06T10:08:14;25.30;38.90
27567;DHT22;15006;48.584;9.186;2022-07-06T10:10:42;25.10;40.10
27567;DHT22;15006;48.584;9.186;2022-07-06T10:13:12;25.00;39.00
27567;DHT22;15006;48.584;9.186;2022-07-06T10:15:41;24.90;39.70
27567;DHT22;15006;48.584;9.186;2022-07-06T10:18:09;24.80;40.40
27567;DHT22;15006;48.584;9.186;2022-07-06T10:20:38;24.80;42.00
27567;DHT22;15006;48.584;9.186;2022-07-06T10:23:08;24.90;42.50
27567;DHT22;15006;48.584;9.186;2022-07-06T10:25:35;25.10;41.20
27567;DHT22;15006;48.584;9.186;2022-07-06T10:28:02;25.20;41.90
27567;DHT22;15006;48.584;9.186;2022-07-06T10:30:30;25.50;41.50
27567;DHT22;15006;48.584;9.186;2022-07-06T10:32:58;25.70;40.60
27567;DHT22;15006;48.584;9.186;2022-07-06T10:35:26;25.80;40.80
27567;DHT22;15006;48.584;9.186;2022-07-06T10:38:08;26.00;40.20
27567;DHT22;15006;48.584;9.186;2022-07-06T10:40:37;26.20;39.00
27567;DHT22;15006;48.584;9.186;2022-07-06T10:43:47;26.30;39.90
27567;DHT22;15006;48.584;9.186;2022-07-06T10:46:15;26.40;38.80
27567;DHT22;15006;48.584;9.186;2022-07-06T10:48:47;26.40;39.80
27567;DHT22;15006;48.584;9.186;2022-07-06T10:51:26;26.20;38.30
27567;DHT22;15006;48.584;9.186;2022-07-06T10:53:59;26.00;37.60
27567;DHT22;15006;48.584;9.186;2022-07-06T10:56:33;25.80;38.70
27567;DHT22;15006;48.584;9.186;2022-07-06T10:59:09;25.60;39.20
27567;DHT22;15006;48.584;9.186;2022-07-06T11:01:41;25.40;41.00
27567;DHT22;15006;48.584;9.186;2022-07-06T11:04:47;25.50;40.50
27567;DHT22;15006;48.584;9.186;2022-07-06T11:07:16;25.70;40.60
27567;DHT22;15006;48.584;9.186;2022-07-06T11:09:57;25.90;41.30
27567;DHT22;15006;48.584;9.186;2022-07-06T11:12:24;26.20;40.50
27567;DHT22;15006;48.584;9.186;2022-07-06T11:14:52;26.50;40.90
27567;DHT22;15006;48.584;9.186;2022-07-06T11:17:19;26.80;40.10
27567;DHT22;15006;48.584;9.186;2022-07-06T11:20:12;27.00;39.10
27567;DHT22;15006;48.584;9.186;2022-07-06T11:22:38;27.10;37.70
27567;DHT22;15006;48.584;9.186;2022-07-06T11:25:05;27.10;37.40
27567;DHT22;15006;48.584;9.186;2022-07-06T11:27:34;26.90;36.70
27567;DHT22;15006;48.584;9.186;2022-07-06T11:30:01;26.80;37.50
27567;DHT22;15006;48.584;9.186;2022-07-06T11:32:28;26.70;37.70
27567;DHT22;15006;48.584;9.186;2022-07-06T11:34:54;26.50;38.30
27567;DHT22;15006;48.584;9.186;2022-07-06T11:37:20;26.40;39.00
27567;DHT22;15006;48.584;9.186;2022-07-06T11:39:48;26.30;39.80
27567;DHT22;15006;48.584;9.186;2022-07-06T11:42:16;26.30;39.30
27567;DHT22;15006;48.584;9.186;2022-07-06T11:44:45;26.30;39.30
27567;DHT22;15006;48.584;9.186;2022-07-06T11:47:12;26.20;39.00
27567;DHT22;15006;48.584;9.186;2022-07-06T11:49:40;26.10;38.50
27567;DHT22;15006;48.584;9.186;2022-07-06T11:52:09;26.00;38.50
27567;DHT22;15006;48.584;9.186;2022-07-06T11:54:37;25.80;38.20
27567;DHT22;15006;48.584;9.186;2022-07-06T11:57:06;25.60;38.90
27567;DHT22;15006;48.584;9.186;2022-07-06T11:59:36;25.40;38.90
27567;DHT22;15006;48.584;9.186;2022-07-06T12:02:14;25.30;40.60
27567;DHT22;15006;48.584;9.186;2022-07-06T12:04:42;25.30;40.30
27567;DHT22;15006;48.584;9.186;2022-07-06T12:07:12;25.30;42.00
27567;DHT22;15006;48.584;9.186;2022-07-06T12:09:40;25.40;41.00
27567;DHT22;15006;48.584;9.186;2022-07-06T12:12:09;25.40;40.60
27567;DHT22;15006;48.584;9.186;2022-07-06T12:14:37;25.40;41.00
27567;DHT22;15006;48.584;9.186;2022-07-06T12:17:14;25.30;40.40
27567;DHT22;15006;48.584;9.186;2022-07-06T12:19:41;25.30;40.30
27567;DHT22;15006;48.584;9.186;2022-07-06T12:22:10;25.20;41.00
27567;DHT22;15006;48.584;9.186;2022-07-06T12:24:37;25.20;42.20
27567;DHT22;15006;48.584;9.186;2022-07-06T12:27:19;25.30;42.30
27567;DHT22;15006;48.584;9.186;2022-07-06T12:29:47;25.40;41.40
27567;DHT22;15006;48.584;9.186;2022-07-06T12:32:15;25.60;41.90
27567;DHT22;15006;48.584;9.186;2022-07-06T12:34:42;25.80;41.10
27567;DHT22;15006;48.584;9.186;2022-07-06T12:37:10;25.90;40.50
27567;DHT22;15006;48.584;9.186;2022-07-06T12:42:12;26.00;41.00
27567;DHT22;15006;48.584;9.186;2022-07-06T12:44:50;26.00;40.30
27567;DHT22;15006;48.584;9.186;2022-07-06T12:47:19;25.90;41.10
27567;DHT22;15006;48.584;9.186;2022-07-06T12:49:47;26.10;41.40
27567;DHT22;15006;48.584;9.186;2022-07-06T12:52:14;26.10;41.30
27567;DHT22;15006;48.584;9.186;2022-07-06T12:54:45;26.30;42.10
27567;DHT22;15006;48.584;9.186;2022-07-06T12:57:19;26.50;40.70
27567;DHT22;15006;48.584;9.186;2022-07-06T12:59:55;26.60;39.80
27567;DHT22;15006;48.584;9.186;2022-07-06T13:02:34;26.60;39.60
27567;DHT22;15006;48.584;9.186;2022-07-06T13:05:08;26.40;39.60
27567;DHT22;15006;48.584;9.186;2022-07-06T13:07:38;26.20;40.00
27567;DHT22;15006;48.584;9.186;2022-07-06T13:10:11;25.90;39.60
27567;DHT22;15006;48.584;9.186;2022-07-06T13:12:39;25.70;40.50
27567;DHT22;15006;48.584;9.186;2022-07-06T13:15:07;25.60;41.30
27567;DHT22;15006;48.584;9.186;2022-07-06T13:17:36;25.70;41.80
27567;DHT22;15006;48.584;9.186;2022-07-06T13:20:10;25.80;42.00
27567;DHT22;15006;48.584;9.186;2022-07-06T13:22:38;26.00;41.80
27567;DHT22;15006;48.584;9.186;2022-07-06T13:25:05;26.10;41.50
27567;DHT22;15006;48.584;9.186;2022-07-06T13:27:31;26.10;41.30
27567;DHT22;15006;48.584;9.186;2022-07-06T13:29:59;26.30;40.50
27567;DHT22;15006;48.584;9.186;2022-07-06T13:32:26;26.50;40.70
27567;DHT22;15006;48.584;9.186;2022-07-06T13:34:51;26.60;41.20
27567;DHT22;15006;48.584;9.186;2022-07-06T13:37:19;26.70;41.40
27567;DHT22;15006;48.584;9.186;2022-07-06T13:39:47;26.90;41.00
27567;DHT22;15006;48.584;9.186;2022-07-06T13:42:14;27.20;40.40
27567;DHT22;15006;48.584;9.186;2022-07-06T14:18:34;27.60;38.80
27567;DHT22;15006;48.584;9.186;2022-07-06T14:21:00;27.90;38.80
27567;DHT22;15006;48.584;9.186;2022-07-06T14:23:27;28.20;38.40
27567;DHT22;15006;48.584;9.186;2022-07-06T14:25:55;28.50;38.60
27567;DHT22;15006;48.584;9.186;2022-07-06T14:28:22;29.00;37.80
27567;DHT22;15006;48.584;9.186;2022-07-06T14:30:48;29.30;37.20
27567;DHT22;15006;48.584;9.186;2022-07-06T14:33:14;29.70;36.90
27567;DHT22;15006;48.584;9.186;2022-07-06T14:35:46;29.90;35.50
27567;DHT22;15006;48.584;9.186;2022-07-06T14:38:14;30.10;34.40
27567;DHT22;15006;48.584;9.186;2022-07-06T14:40:42;30.20;34.50
27567;DHT22;15006;48.584;9.186;2022-07-06T14:43:08;30.30;34.60
27567;DHT22;15006;48.584;9.186;2022-07-06T14:45:36;30.40;33.70
27567;DHT22;15006;48.584;9.186;2022-07-06T14:48:02;30.60;34.20
27567;DHT22;15006;48.584;9.186;2022-07-06T14:50:28;30.80;33.80
27567;DHT22;15006;48.584;9.186;2022-07-06T14:52:54;30.90;33.40
27567;DHT22;15006;48.584;9.186;2022-07-06T14:55:21;30.90;32.90
27567;DHT22;15006;48.584;9.186;2022-07-06T14:57:48;31.00;33.10
27567;DHT22;15006;48.584;9.186;2022-07-06T15:00:14;31.20;32.80
27567;DHT22;15006;48.584;9.186;2022-07-06T15:02:41;31.30;32.10
27567;DHT22;15006;48.584;9.186;2022-07-06T15:05:09;31.30;31.60
27567;DHT22;15006;48.584;9.186;2022-07-06T15:07:36;31.30;31.60
27567;DHT22;15006;48.584;9.186;2022-07-06T15:10:03;31.30;31.20
27567;DHT22;15006;48.584;9.186;2022-07-06T15:12:30;31.30;30.80
27567;DHT22;15006;48.584;9.186;2022-07-06T15:14:56;31.20;30.50
27567;DHT22;15006;48.584;9.186;2022-07-06T15:17:22;31.00;31.00
27567;DHT22;15006;48.584;9.186;2022-07-06T15:19:48;30.80;31.00
27567;DHT22;15006;48.584;9.186;2022-07-06T15:22:15;30.70;31.20
27567;DHT22;15006;48.584;9.186;2022-07-06T15:24:41;30.60;31.10
27567;DHT22;15006;48.584;9.186;2022-07-06T15:27:07;30.50;31.40
27567;DHT22;15006;48.584;9.186;2022-07-06T15:29:34;30.50;31.50
27567;DHT22;15006;48.584;9.186;2022-07-06T15:32:00;30.40;30.70
27567;DHT22;15006;48.584;9.186;2022-07-06T15:34:26;30.30;31.20
27567;DHT22;15006;48.584;9.186;2022-07-06T15:36:52;30.10;31.90
27567;DHT22;15006;48.584;9.186;2022-07-06T15:39:19;29.90;32.00
27567;DHT22;15006;48.584;9.186;2022-07-06T15:41:45;29.90;32.10
27567;DHT22;15006;48.584;9.186;2022-07-06T15:44:11;29.80;31.80
27567;DHT22;15006;48.584;9.186;2022-07-06T15:46:37;29.80;31.60
27567;DHT22;15006;48.584;9.186;2022-07-06T15:49:03;29.70;32.10
27567;DHT22;15006;48.584;9.186;2022-07-06T15:51:30;29.70;32.40
27567;DHT22;15006;48.584;9.186;2022-07-06T15:53:56;29.60;32.00
27567;DHT22;15006;48.584;9.186;2022-07-06T15:56:22;29.40;32.30
27567;DHT22;15006;48.584;9.186;2022-07-06T15:58:49;29.20;32.00
27567;DHT22;15006;48.584;9.186;2022-07-06T16:01:15;28.90;32.00
27567;DHT22;15006;48.584;9.186;2022-07-06T16:03:41;28.50;31.70
27567;DHT22;15006;48.584;9.186;2022-07-06T16:06:08;28.20;32.60
27567;DHT22;15006;48.584;9.186;2022-07-06T16:08:35;27.80;32.30
27567;DHT22;15006;48.584;9.186;2022-07-06T16:11:02;27.40;33.20
27567;DHT22;15006;48.584;9.186;2022-07-06T16:13:28;27.10;33.40
27567;DHT22;15006;48.584;9.186;2022-07-06T16:15:54;26.80;33.70
27567;DHT22;15006;48.584;9.186;2022-07-06T16:18:20;26.60;33.90